Time;durP1;ratioP1;P1;durP2;ratioP2;P2;SDS_P1;SDS_P2;PMS_P1;PMS_P2;Temp;Humidity;BMP_temperature;BMP_pressure;BME280_temperature;BME280_humidity;BME280_pressure;Samples;Min_cycle;Max_cycle;Signal;HPM_P1;HPM_P2
2021/10/30 00:02:23;;;;;;;47.13;29.37;;;4.30;99.90;3.60;96973.00;;;;5117672;27;20586;-72
2021/10/30 00:05:14;;;;;;;39.00;27.93;;;4.30;99.90;3.60;96966.00;;;;5123405;27;20196;-71
2021/10/30 00:08:03;;;;;;;41.43;27.27;;;4.20;99.90;3.50;96972.00;;;;5118158;27;20412;-73
2021/10/30 00:10:52;;;;;;;38.77;27.30;;;4.20;99.90;3.40;96972.00;;;;5125486;27;20956;-73
2021/10/30 00:13:40;;;;;;;44.37;28.83;;;4.10;99.90;3.50;96967.00;;;;5129442;27;20416;-73
2021/10/30 00:16:29;;;;;;;42.33;27.13;;;4.10;99.90;3.40;96976.00;;;;5113886;27;20943;-72
2021/10/30 00:19:20;;;;;;;49.10;36.42;;;4.00;99.90;3.40;96978.00;;;;5106100;28;20392;-73
2021/10/30 00:22:09;;;;;;;42.03;29.37;;;4.00;99.90;3.40;96971.00;;;;5109178;28;20219;-72
2021/10/30 00:24:58;;;;;;;45.73;28.13;;;4.00;99.90;3.40;96970.00;;;;5116110;27;20438;-73
2021/10/30 00:27:47;;;;;;;44.20;28.80;;;4.00;99.90;3.40;96970.00;;;;5128469;27;21027;-71
2021/10/30 00:30:36;;;;;;;41.27;26.43;;;3.90;99.90;3.30;96952.00;;;;5129081;27;20459;-71
2021/10/30 00:33:25;;;;;;;42.87;26.33;;;3.90;99.90;3.20;96952.00;;;;5128852;27;20416;-71
2021/10/30 00:36:15;;;;;;;47.13;29.00;;;3.90;99.90;3.20;96956.00;;;;5121190;27;20435;-71
2021/10/30 00:39:04;;;;;;;46.83;28.67;;;3.80;99.90;3.00;96952.00;;;;5115651;27;20435;-71
2021/10/30 00:41:56;;;;;;;39.90;26.93;;;3.80;99.90;3.10;96949.00;;;;5107810;28;20441;-70
2021/10/30 00:44:45;;;;;;;42.77;28.00;;;3.70;99.90;3.10;96951.00;;;;5107074;28;20413;-71
2021/10/30 00:47:34;;;;;;;39.83;27.03;;;3.70;99.90;3.10;96957.00;;;;5108695;28;20981;-71
2021/10/30 00:50:23;;;;;;;42.03;28.17;;;3.70;99.90;3.10;96955.00;;;;5112424;27;20474;-73
2021/10/30 00:53:13;;;;;;;45.10;27.67;;;3.70;99.90;3.10;96962.00;;;;5120887;27;20759;-72
2021/10/30 00:56:05;;;;;;;37.87;26.23;;;3.70;99.90;3.00;96951.00;;;;5126298;27;20404;-70
2021/10/30 00:58:57;;;;;;;45.03;28.37;;;3.60;99.90;2.90;96952.00;;;;5127717;27;20416;-73
2021/10/30 01:01:48;;;;;;;38.57;25.53;;;3.60;99.90;2.90;96948.00;;;;5127081;27;20443;-70
2021/10/30 01:04:37;;;;;;;43.07;27.63;;;3.50;99.90;2.80;96943.00;;;;5127040;27;20412;-72
2021/10/30 01:07:27;;;;;;;42.40;26.60;;;3.50;99.90;2.90;96941.00;;;;5127182;27;20415;-73
2021/10/30 01:10:17;;;;;;;40.53;27.33;;;3.50;99.90;2.80;96932.00;;;;5124906;27;20840;-72
2021/10/30 01:13:06;;;;;;;44.93;27.90;;;3.50;99.90;2.80;96938.00;;;;5127052;27;20411;-71
2021/10/30 01:15:54;;;;;;;44.07;28.23;;;3.40;99.90;2.70;96932.00;;;;5127402;27;20412;-73
2021/10/30 01:18:43;;;;;;;46.17;29.17;;;3.40;99.90;2.50;96936.00;;;;5127473;27;20424;-71
2021/10/30 01:21:36;;;;;;;41.57;26.97;;;3.30;99.90;2.50;96926.00;;;;5127275;27;20432;-73
2021/10/30 01:24:26;;;;;;;43.93;27.33;;;3.20;99.90;2.60;96920.00;;;;5126666;27;20435;-72
2021/10/30 01:27:17;;;;;;;42.93;25.80;;;3.20;99.90;2.60;96918.00;;;;5127419;27;20454;-72
2021/10/30 01:30:07;;;;;;;44.70;28.87;;;3.20;99.90;2.50;96921.00;;;;5126629;27;20459;-72
2021/10/30 01:32:59;;;;;;;41.97;29.20;;;3.20;99.90;2.40;96904.00;;;;5127894;27;20432;-73
2021/10/30 01:35:48;;;;;;;47.27;29.70;;;3.10;99.90;2.40;96909.00;;;;5128227;27;20426;-72
2021/10/30 01:38:39;;;;;;;44.83;29.10;;;3.10;99.90;2.30;96907.00;;;;5127576;27;20945;-71
2021/10/30 01:41:28;;;;;;;44.07;29.30;;;3.00;99.90;2.30;96904.00;;;;5122225;27;20462;-70
2021/10/30 01:44:17;;;;;;;45.20;28.00;;;3.00;99.90;2.40;96916.00;;;;5127420;27;20783;-71
2021/10/30 01:47:06;;;;;;;43.40;27.90;;;2.90;99.90;2.30;96912.00;;;;5126763;27;20408;-73
2021/10/30 01:49:55;;;;;;;40.83;28.70;;;3.00;99.90;2.10;96894.00;;;;5121339;27;20468;-73
2021/10/30 01:52:45;;;;;;;40.23;27.63;;;2.90;99.90;2.20;96888.00;;;;5126257;27;20440;-73
2021/10/30 01:55:38;;;;;;;43.47;27.63;;;2.90;99.90;2.20;96892.00;;;;5125779;27;20656;-71
2021/10/30 01:58:27;;;;;;;41.83;27.43;;;2.80;99.90;2.10;96890.00;;;;5127621;27;20434;-70
2021/10/30 02:01:16;;;;;;;47.47;27.77;;;2.80;99.90;2.00;96887.00;;;;5126172;27;20424;-71
2021/10/30 02:04:05;;;;;;;44.10;28.70;;;2.70;99.90;2.00;96898.00;;;;5127004;27;20424;-72
2021/10/30 02:06:54;;;;;;;45.87;28.30;;;2.70;99.90;2.20;96898.00;;;;5125366;27;20408;-72
2021/10/30 02:09:44;;;;;;;42.17;25.53;;;2.70;99.90;2.20;96892.00;;;;5126655;27;20462;-72
2021/10/30 02:12:34;;;;;;;39.33;25.07;;;2.80;99.90;2.30;96891.00;;;;5126435;27;20432;-72
2021/10/30 02:15:24;;;;;;;38.00;26.00;;;2.80;99.90;2.30;96883.00;;;;5126453;27;20419;-72
2021/10/30 02:18:13;;;;;;;38.90;25.83;;;2.80;99.90;2.40;96881.00;;;;5126297;27;20423;-72
2021/10/30 02:21:02;;;;;;;38.40;25.67;;;2.90;99.90;2.20;96886.00;;;;5124836;27;20436;-73
2021/10/30 02:23:51;;;;;;;37.23;25.13;;;2.80;99.90;2.10;96887.00;;;;5121218;27;20452;-73
2021/10/30 02:26:39;;;;;;;39.47;25.70;;;2.80;99.90;2.10;96887.00;;;;5085817;28;20421;-73
2021/10/30 02:29:30;;;;;;;36.07;24.00;;;2.70;99.90;2.10;96886.00;;;;5085632;28;20418;-72
2021/10/30 02:32:20;;;;;;;40.53;26.13;;;2.70;99.90;2.00;96877.00;;;;5085734;28;20457;-72
2021/10/30 02:35:09;;;;;;;36.00;24.43;;;2.70;99.90;1.90;96881.00;;;;5088899;28;20808;-72
2021/10/30 02:37:58;;;;;;;41.27;25.43;;;2.60;99.90;1.60;96876.00;;;;5105882;28;20428;-72
2021/10/30 02:40:47;;;;;;;36.70;24.80;;;2.60;99.90;1.30;96875.00;;;;5105850;28;20518;-72
2021/10/30 02:43:36;;;;;;;36.83;23.77;;;2.40;99.90;1.30;96876.00;;;;5105673;28;20420;-70
2021/10/30 02:46:26;;;;;;;38.93;24.23;;;2.30;99.90;1.00;96863.00;;;;5104638;28;20419;-71
2021/10/30 02:49:17;;;;;;;44.57;26.43;;;2.20;99.90;1.10;96867.00;;;;5104897;28;20413;-71
2021/10/30 02:52:08;;;;;;;42.73;26.30;;;2.10;99.90;1.30;96867.00;;;;5106452;28;20452;-72
2021/10/30 02:54:56;;;;;;;37.83;25.97;;;2.10;99.90;1.40;96866.00;;;;5104908;28;20443;-72
2021/10/30 02:57:49;;;;;;;38.27;26.10;;;2.00;99.90;1.30;96854.00;;;;5105075;28;20417;-72
2021/10/30 03:00:38;;;;;;;40.43;26.07;;;2.00;99.90;1.40;96857.00;;;;5103597;28;20424;-72
2021/10/30 03:03:28;;;;;;;38.17;26.00;;;2.10;99.90;1.50;96851.00;;;;5100442;28;20413;-72
2021/10/30 03:06:21;;;;;;;35.27;24.63;;;2.10;99.90;1.10;96855.00;;;;5105044;28;20417;-72
2021/10/30 03:09:10;;;;;;;39.70;24.33;;;2.10;99.90;0.80;96863.00;;;;5105445;28;20815;-72
2021/10/30 03:11:59;;;;;;;36.10;24.10;;;1.90;99.90;0.90;96854.00;;;;5106142;28;20472;-73
2021/10/30 03:14:47;;;;;;;40.67;24.60;;;1.90;99.90;0.90;96847.00;;;;5105189;28;20417;-72
2021/10/30 03:17:36;;;;;;;40.07;24.80;;;1.80;99.90;0.80;96856.00;;;;5095756;28;20962;-72
2021/10/30 03:20:26;;;;;;;42.20;26.23;;;1.70;99.90;0.70;96866.00;;;;5098661;28;20424;-71
2021/10/30 03:23:15;;;;;;;37.13;22.63;;;1.70;99.90;0.70;96859.00;;;;5106243;28;20809;-71
2021/10/30 03:26:04;;;;;;;39.67;25.30;;;1.60;99.90;0.70;96848.00;;;;5129664;27;20789;-72
2021/10/30 03:28:53;;;;;;;40.93;25.93;;;1.50;99.90;0.80;96851.00;;;;5131055;27;20419;-72
2021/10/30 03:31:42;;;;;;;34.00;23.07;;;1.60;99.90;1.00;96848.00;;;;5125277;27;20451;-72
2021/10/30 03:34:32;;;;;;;42.80;25.93;;;1.50;99.90;1.10;96861.00;;;;5109354;28;20424;-71
2021/10/30 03:37:22;;;;;;;38.47;24.77;;;1.70;99.90;0.90;96854.00;;;;5110099;28;20423;-71
2021/10/30 03:40:13;;;;;;;37.10;24.97;;;1.60;99.90;0.50;96849.00;;;;5109645;28;20416;-71
2021/10/30 03:43:02;;;;;;;40.80;24.63;;;1.50;99.90;0.50;96856.00;;;;5109308;28;20967;-71
2021/10/30 03:45:50;;;;;;;41.97;26.33;;;1.40;99.90;0.70;96853.00;;;;5107666;28;20424;-72
2021/10/30 03:48:39;;;;;;;37.87;23.90;;;1.90;99.90;0.60;96846.00;;;;5108986;28;20409;-71
2021/10/30 03:51:28;;;;;;;34.63;23.70;;;1.40;99.90;0.00;96840.00;;;;5122322;27;20463;-73
2021/10/30 03:54:18;;;;;;;35.27;22.97;;;1.30;99.90;0.00;96848.00;;;;5110172;28;20397;-73
2021/10/30 03:57:08;;;;;;;38.87;23.83;;;1.10;99.90;0.10;96849.00;;;;5108628;28;20409;-73
2021/10/30 03:59:57;;;;;;;32.80;21.93;;;1.10;99.90;0.00;96843.00;;;;5108672;28;20413;-73
2021/10/30 04:02:47;;;;;;;35.83;21.10;;;1.00;99.90;-0.10;96857.00;;;;5109663;28;20439;-74
2021/10/30 04:05:36;;;;;;;39.43;24.40;;;1.00;99.90;-0.20;96841.00;;;;5117612;27;20849;-73
2021/10/30 04:08:25;;;;;;;38.70;26.67;;;0.90;99.90;-0.10;96847.00;;;;5122724;27;20431;-73
2021/10/30 04:11:15;;;;;;;33.60;22.60;;;0.90;99.90;0.10;96848.00;;;;5129225;27;20816;-72
2021/10/30 04:14:04;;;;;;;36.60;22.73;;;0.80;99.90;0.10;96846.00;;;;5128761;27;20801;-73
2021/10/30 04:16:53;;;;;;;38.27;25.43;;;0.80;99.90;0.10;96851.00;;;;5128116;27;20418;-73
2021/10/30 04:19:41;;;;;;;38.10;23.97;;;0.90;99.90;0.00;96844.00;;;;5128070;27;20423;-74
2021/10/30 04:22:30;;;;;;;40.17;26.90;;;0.80;99.90;0.00;96846.00;;;;5127788;27;21063;-74
2021/10/30 04:25:19;;;;;;;41.13;24.23;;;0.80;99.90;0.10;96841.00;;;;5127591;27;20448;-74
2021/10/30 04:28:09;;;;;;;35.37;22.17;;;0.80;99.90;-0.10;96837.00;;;;5128992;27;20404;-73
2021/10/30 04:31:02;;;;;;;40.23;23.50;;;0.80;99.90;0.10;96837.00;;;;5128664;27;20473;-72
2021/10/30 04:33:54;;;;;;;38.37;23.60;;;0.80;99.90;0.10;96821.00;;;;5129000;27;20414;-73
2021/10/30 04:36:45;;;;;;;37.27;23.00;;;0.90;99.90;-0.10;96825.00;;;;5127267;27;20424;-73
2021/10/30 04:39:34;;;;;;;38.57;24.83;;;0.80;99.90;-0.20;96821.00;;;;5128778;27;20408;-73
2021/10/30 04:42:23;;;;;;;32.47;21.90;;;0.80;99.90;-0.20;96820.00;;;;5129379;27;20435;-73
2021/10/30 04:45:13;;;;;;;32.33;19.73;;;0.80;99.90;-0.40;96819.00;;;;5126503;27;20423;-73
2021/10/30 04:48:02;;;;;;;38.00;23.90;;;0.70;99.90;-0.30;96827.00;;;;5127343;27;20416;-73
2021/10/30 04:50:51;;;;;;;35.87;22.97;;;0.70;99.90;-0.40;96820.00;;;;5128927;27;20732;-74
2021/10/30 04:53:43;;;;;;;29.70;18.57;;;0.60;99.90;-0.60;96815.00;;;;5128129;27;20419;-73
2021/10/30 04:56:31;;;;;;;37.03;22.83;;;0.50;99.90;-0.60;96811.00;;;;5120523;27;20439;-74
2021/10/30 04:59:21;;;;;;;34.23;21.17;;;0.40;99.90;-0.60;96813.00;;;;5107698;28;20597;-74
2021/10/30 05:02:11;;;;;;;38.77;22.27;;;0.40;99.90;-0.50;96815.00;;;;5108703;28;20440;-74
2021/10/30 05:05:00;;;;;;;36.03;23.00;;;0.40;99.90;-0.40;96809.00;;;;5107608;28;20468;-73
2021/10/30 05:07:49;;;;;;;34.53;23.07;;;0.40;99.90;-0.30;96825.00;;;;5107916;28;20416;-73
2021/10/30 05:10:39;;;;;;;36.53;22.13;;;0.50;99.90;-0.40;96825.00;;;;5106314;28;20413;-73
2021/10/30 05:13:28;;;;;;;42.53;22.63;;;0.40;99.90;-0.20;96817.00;;;;5112729;27;20807;-73
2021/10/30 05:16:17;;;;;;;36.23;22.07;;;0.50;99.90;-0.10;96813.00;;;;5118658;27;20420;-73
2021/10/30 05:19:07;;;;;;;35.10;22.60;;;0.50;99.90;-0.30;96808.00;;;;5107003;28;20470;-73
2021/10/30 05:21:56;;;;;;;38.57;22.27;;;0.60;99.90;-0.80;96806.00;;;;5113248;27;20452;-74
2021/10/30 05:24:44;;;;;;;30.70;20.83;;;0.40;99.90;-0.80;96799.00;;;;5109624;27;20439;-74
2021/10/30 05:27:33;;;;;;;32.63;20.53;;;0.30;99.90;-1.10;96807.00;;;;5117492;27;20427;-73
2021/10/30 05:30:22;;;;;;;35.03;21.40;;;0.20;99.90;-1.10;96804.00;;;;5109262;27;20412;-71
2021/10/30 05:33:11;;;;;;;24.33;17.20;;;0.10;99.90;-1.00;96808.00;;;;5108838;27;20997;-73
2021/10/30 05:36:04;;;;;;;33.43;20.37;;;0.00;99.90;-0.90;96813.00;;;;5117056;27;20428;-71
2021/10/30 05:38:54;;;;;;;30.03;19.47;;;0.00;99.90;-1.20;96804.00;;;;5106443;28;20799;-72
2021/10/30 05:41:43;;;;;;;39.70;20.33;;;-0.10;99.90;-1.00;96806.00;;;;5106644;28;20437;-75
2021/10/30 05:44:34;;;;;;;29.63;19.47;;;-0.10;99.90;-0.90;96811.00;;;;5106948;27;20416;-73
2021/10/30 05:47:24;;;;;;;36.13;22.17;;;0.00;99.90;-0.90;96813.00;;;;5118111;27;20425;-73
2021/10/30 05:50:13;;;;;;;32.50;21.27;;;0.00;99.90;-0.80;96815.00;;;;5114792;27;20405;-75
2021/10/30 05:53:05;;;;;;;39.03;22.00;;;0.00;99.90;-1.00;96809.00;;;;5108660;27;20998;-73
2021/10/30 05:55:54;;;;;;;36.00;24.50;;;0.00;99.90;-0.90;96816.00;;;;5116383;27;20439;-74
2021/10/30 05:59:06;;;;;;;34.67;17.40;;;0.00;99.90;-1.30;96809.00;;;;5120543;27;20520;-73
2021/10/30 06:01:57;;;;;;;25.40;16.77;;;-0.10;99.90;-1.10;96819.00;;;;5111500;27;20467;-74
2021/10/30 06:04:46;;;;;;;25.83;17.80;;;-0.10;99.90;-1.10;96815.00;;;;5113736;27;20429;-74
2021/10/30 06:07:37;;;;;;;30.97;19.80;;;-0.10;99.90;-1.20;96823.00;;;;5123508;27;20424;-75
2021/10/30 06:10:30;;;;;;;34.13;21.70;;;-0.20;99.90;-0.80;96826.00;;;;5110848;27;20412;-72
2021/10/30 06:13:20;;;;;;;38.93;23.37;;;-0.10;99.90;-0.50;96818.00;;;;5105608;27;20448;-71
2021/10/30 06:16:09;;;;;;;38.77;24.23;;;0.00;99.90;-0.40;96829.00;;;;5106768;28;20939;-71
2021/10/30 06:19:00;;;;;;;32.00;22.63;;;0.20;99.90;-0.60;96818.00;;;;5127444;27;20428;-72
2021/10/30 06:21:49;;;;;;;34.63;23.57;;;0.20;99.90;-0.30;96820.00;;;;5117987;27;20451;-72
2021/10/30 06:24:41;;;;;;;33.03;19.57;;;1.30;99.90;0.00;96816.00;;;;5112156;27;20454;-72
2021/10/30 06:27:31;;;;;;;34.57;20.50;;;0.50;99.90;-0.10;96834.00;;;;5119178;27;20450;-72
2021/10/30 06:30:20;;;;;;;28.23;18.93;;;0.60;99.90;-0.70;96822.00;;;;5119452;27;20815;-75
2021/10/30 06:33:10;;;;;;;33.10;20.37;;;0.50;99.90;-0.90;96811.00;;;;5104397;28;20462;-73
2021/10/30 06:36:00;;;;;;;29.93;19.23;;;-0.20;99.90;-1.00;96812.00;;;;5117607;27;20427;-73
2021/10/30 06:38:50;;;;;;;38.43;15.13;;;0.20;99.90;-0.60;96802.00;;;;5125561;28;20800;-73
2021/10/30 06:41:48;;;;;;;15.53;12.20;;;0.20;99.90;-0.70;96805.00;;;;5125547;28;20436;-73
2021/10/30 06:44:38;;;;;;;43.93;22.90;;;0.30;99.90;-0.50;96808.00;;;;5123708;28;20430;-73
2021/10/30 06:47:28;;;;;;;27.57;17.03;;;0.30;99.90;-0.70;96820.00;;;;5125635;28;20412;-71
2021/10/30 06:50:21;;;;;;;16.93;13.23;;;0.40;99.90;-0.60;96824.00;;;;5125622;28;20408;-72
2021/10/30 06:53:11;;;;;;;15.00;10.30;;;0.40;99.90;-0.60;96800.00;;;;5121925;27;20842;-72
2021/10/30 06:56:00;;;;;;;28.70;17.77;;;0.40;99.90;-0.80;96814.00;;;;5120526;28;20431;-73
2021/10/30 06:58:49;;;;;;;29.20;18.07;;;0.40;99.90;-0.70;96822.00;;;;5125936;27;20416;-74
2021/10/30 07:01:40;;;;;;;29.80;17.37;;;0.40;99.90;-0.40;96814.00;;;;5121672;27;20451;-72
2021/10/30 07:04:29;;;;;;;19.37;13.43;;;0.40;99.90;0.00;96824.00;;;;5123529;27;20453;-74
2021/10/30 07:07:18;;;;;;;40.20;20.13;;;0.60;99.90;0.20;96832.00;;;;5109173;28;20416;-72
2021/10/30 07:10:09;;;;;;;25.63;17.20;;;0.80;99.90;0.40;96836.00;;;;5106742;28;20854;-72
2021/10/30 07:12:57;;;;;;;28.30;18.47;;;0.90;99.90;0.40;96825.00;;;;5105943;28;20471;-72
2021/10/30 07:15:47;;;;;;;35.53;18.80;;;1.10;99.90;0.60;96827.00;;;;5118517;27;20435;-72
2021/10/30 07:18:38;;;;;;;25.93;18.50;;;1.20;99.90;0.50;96834.00;;;;5129913;27;21056;-71
2021/10/30 07:21:26;;;;;;;18.93;10.27;;;1.30;99.90;0.50;96827.00;;;;5129050;27;20446;-75
2021/10/30 07:24:15;;;;;;;21.83;14.83;;;1.30;99.90;0.30;96836.00;;;;5129692;27;20878;-74
2021/10/30 07:27:06;;;;;;;27.77;17.07;;;1.30;99.90;0.30;96829.00;;;;5127887;27;20918;-73
2021/10/30 07:29:55;;;;;;;29.93;17.50;;;1.30;99.90;0.60;96832.00;;;;5124080;27;20436;-73
2021/10/30 07:32:44;;;;;;;17.27;10.90;;;1.40;99.90;0.70;96838.00;;;;5122655;27;20480;-73
2021/10/30 07:35:34;;;;;;;22.77;14.70;;;1.50;99.90;0.80;96831.00;;;;5129892;27;20412;-71
2021/10/30 07:38:24;;;;;;;25.33;16.30;;;1.50;99.90;1.00;96837.00;;;;5128829;27;20930;-71
2021/10/30 07:41:13;;;;;;;26.77;17.37;;;1.60;99.90;1.10;96834.00;;;;5129195;27;20837;-71
2021/10/30 07:44:02;;;;;;;22.23;15.60;;;1.70;99.90;0.90;96839.00;;;;5130291;27;20415;-73
2021/10/30 07:46:51;;;;;;;22.53;15.43;;;1.80;99.90;1.30;96842.00;;;;5127724;27;20415;-72
2021/10/30 07:49:41;;;;;;;23.43;15.33;;;1.90;99.90;1.50;96840.00;;;;5128516;27;20415;-73
2021/10/30 07:52:32;;;;;;;25.77;16.90;;;2.10;99.90;1.80;96840.00;;;;5129646;27;20466;-71
2021/10/30 07:55:20;;;;;;;30.00;18.40;;;2.20;99.90;2.20;96834.00;;;;5129253;27;20408;-72
2021/10/30 07:58:33;;;;;;;28.83;18.20;;;2.30;99.90;2.50;96846.00;;;;5129812;27;20792;-73
2021/10/30 08:01:22;;;;;;;31.00;18.93;;;2.60;99.90;2.80;96834.00;;;;5128783;27;20961;-72
2021/10/30 08:04:11;;;;;;;23.30;17.07;;;2.80;99.90;2.90;96841.00;;;;5128537;27;20420;-72
2021/10/30 08:07:00;;;;;;;31.00;19.47;;;3.10;99.90;3.00;96838.00;;;;5128736;27;20423;-72
2021/10/30 08:09:50;;;;;;;23.57;16.43;;;3.30;99.90;3.00;96842.00;;;;5128530;27;20423;-73
2021/10/30 08:12:39;;;;;;;21.67;15.20;;;3.50;99.90;3.20;96840.00;;;;5128422;27;20482;-73
2021/10/30 08:15:29;;;;;;;25.70;16.80;;;3.60;99.90;3.20;96835.00;;;;5129394;27;20419;-71
2021/10/30 08:18:18;;;;;;;26.80;17.33;;;3.70;99.90;3.50;96841.00;;;;5128559;27;20423;-73
2021/10/30 08:21:07;;;;;;;26.97;17.60;;;3.80;99.90;3.90;96840.00;;;;5127794;27;20462;-73
2021/10/30 08:23:57;;;;;;;29.07;17.33;;;4.00;99.90;4.20;96845.00;;;;5128901;27;20434;-73
2021/10/30 08:26:47;;;;;;;23.40;14.57;;;4.20;99.90;4.30;96852.00;;;;5128360;27;20416;-73
2021/10/30 08:29:36;;;;;;;25.70;15.97;;;4.50;99.90;4.50;96851.00;;;;5125411;27;20764;-73
2021/10/30 08:32:25;;;;;;;17.47;13.77;;;4.70;99.90;4.70;96858.00;;;;5128863;27;20440;-73
2021/10/30 08:35:14;;;;;;;22.57;15.37;;;4.90;99.90;5.00;96856.00;;;;5126853;27;20419;-72
2021/10/30 08:38:07;;;;;;;19.77;14.07;;;5.10;99.90;5.30;96854.00;;;;5109003;28;20420;-72
2021/10/30 08:40:58;;;;;;;26.17;15.23;;;5.30;99.90;5.80;96854.00;;;;5118165;27;20206;-72
2021/10/30 08:43:50;;;;;;;23.13;15.43;;;5.50;99.90;6.10;96854.00;;;;5127655;27;20201;-72
2021/10/30 08:46:39;;;;;;;18.47;14.20;;;5.80;99.90;6.60;96855.00;;;;5128062;27;20194;-72
2021/10/30 08:49:30;;;;;;;18.53;14.20;;;6.10;99.90;6.90;96847.00;;;;5126836;27;20193;-72
2021/10/30 08:52:18;;;;;;;18.33;13.17;;;6.40;99.90;7.10;96851.00;;;;5127558;27;20221;-72
2021/10/30 08:55:10;;;;;;;21.57;14.77;;;6.70;99.90;7.20;96854.00;;;;5127783;27;20190;-72
2021/10/30 08:58:08;;;;;;;18.40;14.30;;;7.00;99.90;7.30;96862.00;;;;5127452;27;20198;-70
2021/10/30 09:01:00;;;;;;;19.60;14.73;;;7.20;99.90;7.40;96859.00;;;;5120557;27;20201;-72
2021/10/30 09:04:01;;;;;;;17.90;13.00;;;7.30;99.90;7.70;96863.00;;;;5127840;27;20213;-72
2021/10/30 09:07:00;;;;;;;17.33;13.10;;;7.50;99.90;7.80;96863.00;;;;5128569;27;20669;-72
2021/10/30 09:09:51;;;;;;;17.47;13.43;;;7.70;99.90;7.90;96859.00;;;;5126018;27;20205;-73
2021/10/30 09:12:40;;;;;;;18.80;12.50;;;7.80;99.90;8.20;96858.00;;;;5124056;27;20218;-72
2021/10/30 09:15:35;;;;;;;16.67;12.07;;;8.00;99.90;8.60;96861.00;;;;5128732;27;20205;-72
2021/10/30 09:18:30;;;;;;;18.10;12.20;;;8.20;99.90;8.70;96852.00;;;;5128424;27;20197;-72
2021/10/30 09:21:22;;;;;;;20.20;12.33;;;8.40;99.90;8.80;96861.00;;;;5127206;27;20216;-72
2021/10/30 09:24:14;;;;;;;23.00;13.40;;;8.60;99.90;9.00;96857.00;;;;5128118;27;20579;-73
2021/10/30 09:27:02;;;;;;;18.83;12.80;;;8.80;99.90;9.20;96867.00;;;;5118413;27;20551;-72
2021/10/30 09:29:57;;;;;;;20.87;13.10;;;8.90;99.90;9.40;96859.00;;;;5126984;27;20657;-72
2021/10/30 09:32:58;;;;;;;13.97;11.20;;;9.10;99.90;9.50;96853.00;;;;5127078;27;20228;-72
2021/10/30 09:35:48;;;;;;;16.83;11.60;;;9.20;99.90;9.90;96858.00;;;;5126064;27;20197;-72
2021/10/30 09:38:39;;;;;;;15.20;10.77;;;9.40;99.90;9.90;96850.00;;;;5127424;27;20201;-73
2021/10/30 09:41:31;;;;;;;17.43;13.53;;;9.60;99.90;10.20;96851.00;;;;5126810;27;20213;-71
2021/10/30 09:44:26;;;;;;;14.47;12.10;;;9.80;99.90;10.40;96839.00;;;;5125871;27;20201;-71
2021/10/30 09:47:23;;;;;;;16.17;11.23;;;10.00;99.90;10.80;96840.00;;;;5126225;27;20205;-72
2021/10/30 09:50:24;;;;;;;15.80;11.43;;;10.20;99.90;11.00;96841.00;;;;5125945;27;20202;-73
2021/10/30 09:53:41;;;;;;;13.93;11.60;;;10.40;99.90;11.10;96845.00;;;;5125882;27;20219;-72
2021/10/30 09:56:45;;;;;;;13.97;11.00;;;10.60;99.90;11.60;96834.00;;;;5098203;27;20209;-72
2021/10/30 09:59:37;;;;;;;15.87;11.40;;;10.80;99.90;11.70;96835.00;;;;5126172;27;20197;-73
2021/10/30 10:02:27;;;;;;;14.70;11.57;;;11.10;99.90;11.70;96835.00;;;;5122917;27;20214;-72
2021/10/30 10:05:18;;;;;;;17.23;11.00;;;11.30;99.90;12.00;96828.00;;;;5113715;27;20202;-72
2021/10/30 10:08:08;;;;;;;14.50;10.63;;;11.50;99.90;12.10;96839.00;;;;5126570;27;20197;-73
2021/10/30 10:11:00;;;;;;;15.00;10.53;;;11.70;99.90;12.30;96828.00;;;;5125574;27;20197;-73
2021/10/30 10:13:52;;;;;;;15.40;11.27;;;11.90;99.90;12.50;96832.00;;;;5126576;27;20218;-73
2021/10/30 10:16:41;;;;;;;14.77;11.93;;;12.20;99.90;12.90;96829.00;;;;5125715;27;20209;-72
2021/10/30 10:19:30;;;;;;;15.57;10.90;;;12.60;99.90;13.20;96818.00;;;;5125460;27;20206;-73
2021/10/30 10:22:19;;;;;;;16.73;12.13;;;12.90;99.90;13.80;96821.00;;;;5125785;27;20230;-74
2021/10/30 10:25:30;;;;;;;15.53;12.47;;;13.30;99.90;14.40;96816.00;;;;5115866;27;20441;-73
2021/10/30 10:28:34;;;;;;;14.30;11.97;;;13.80;99.90;15.10;96809.00;;;;5126998;27;21027;-73
2021/10/30 10:31:26;;;;;;;20.17;12.30;;;14.30;99.90;15.40;96813.00;;;;5114320;27;20210;-73
2021/10/30 10:34:18;;;;;;;15.80;12.73;;;14.90;97.60;15.30;96808.00;;;;5121000;27;20215;-74
2021/10/30 10:37:22;;;;;;;16.07;11.90;;;15.30;94.80;15.90;96805.00;;;;5122399;27;20201;-74
2021/10/30 10:40:30;;;;;;;14.87;11.97;;;15.60;92.90;16.20;96802.00;;;;5124419;28;20668;-73
2021/10/30 10:43:45;;;;;;;14.87;12.50;;;15.80;91.70;16.80;96805.00;;;;5113442;28;20186;-73
2021/10/30 10:46:40;;;;;;;21.47;13.83;;;16.30;92.00;16.60;96803.00;;;;5125698;28;20571;-74
2021/10/30 10:49:40;;;;;;;20.50;15.23;;;16.60;86.80;16.30;96790.00;;;;5125705;28;20205;-73
2021/10/30 10:52:30;;;;;;;29.13;15.37;;;16.80;81.00;16.80;96795.00;;;;5126142;28;20233;-73
2021/10/30 10:55:18;;;;;;;20.13;14.53;;;17.00;81.20;17.10;96787.00;;;;5126018;28;20226;-74
2021/10/30 10:58:10;;;;;;;24.40;16.03;;;17.00;81.50;16.90;96783.00;;;;5125111;28;20201;-73
2021/10/30 11:01:07;;;;;;;21.20;15.77;;;17.10;79.60;17.20;96779.00;;;;5111383;28;20241;-74
2021/10/30 11:04:12;;;;;;;25.10;16.17;;;17.30;78.20;17.80;96771.00;;;;5124420;28;20194;-74
2021/10/30 11:07:18;;;;;;;17.67;14.80;;;17.40;79.20;18.20;96782.00;;;;5124490;27;20202;-73
2021/10/30 11:10:11;;;;;;;21.47;16.23;;;17.80;78.50;18.30;96782.00;;;;5118927;28;20186;-74
2021/10/30 11:13:08;;;;;;;22.60;18.10;;;18.00;75.70;18.50;96764.00;;;;5119349;28;20217;-74
2021/10/30 11:15:57;;;;;;;23.13;18.53;;;18.20;75.00;19.10;96771.00;;;;5125060;28;20216;-75
2021/10/30 11:19:04;;;;;;;24.30;17.43;;;18.50;76.20;18.80;96771.00;;;;5125015;28;20251;-74
2021/10/30 11:22:10;;;;;;;22.87;18.17;;;18.70;72.70;18.70;96770.00;;;;5125529;28;20221;-73
2021/10/30 11:25:01;;;;;;;18.20;16.27;;;19.00;70.00;17.40;96760.00;;;;5112880;28;20219;-74
2021/10/30 11:27:52;;;;;;;20.87;16.70;;;19.20;62.80;18.90;96760.00;;;;5123478;28;20201;-74
2021/10/30 11:30:43;;;;;;;20.10;14.80;;;19.20;63.30;19.40;96760.00;;;;5110630;28;20190;-73
2021/10/30 11:33:32;;;;;;;15.70;13.97;;;19.30;64.00;20.10;96754.00;;;;5123545;28;20195;-75
2021/10/30 11:36:22;;;;;;;15.87;13.33;;;19.60;64.10;20.70;96751.00;;;;5114929;28;20208;-74
2021/10/30 11:39:14;;;;;;;19.50;16.23;;;20.10;63.40;21.20;96754.00;;;;5125963;28;20195;-74
2021/10/30 11:42:07;;;;;;;17.37;15.37;;;20.60;62.10;21.60;96754.00;;;;5126050;28;20225;-74
2021/10/30 11:44:59;;;;;;;18.10;14.97;;;21.10;60.60;21.80;96751.00;;;;5126029;27;20216;-74
2021/10/30 11:47:53;;;;;;;16.83;15.03;;;21.50;59.30;22.00;96744.00;;;;5129211;27;20203;-73
2021/10/30 11:50:54;;;;;;;16.73;14.43;;;21.90;58.20;22.30;96750.00;;;;5109439;27;20198;-74
2021/10/30 11:53:46;;;;;;;18.30;15.27;;;22.20;57.30;23.00;96747.00;;;;5124227;27;20592;-73
2021/10/30 11:56:36;;;;;;;15.95;14.32;;;22.50;57.00;22.80;96751.00;;;;5115166;27;20201;-74
2021/10/30 11:59:25;;;;;;;17.13;15.27;;;22.80;55.30;23.90;96755.00;;;;5123238;27;20379;-74
2021/10/30 12:02:18;;;;;;;18.50;16.55;;;23.10;54.10;22.40;96740.00;;;;5127569;27;20382;-71
2021/10/30 12:05:14;;;;;;;18.15;16.25;;;23.10;50.60;22.40;96736.00;;;;5128094;27;20220;-74
2021/10/30 12:08:09;;;;;;;17.23;14.65;;;22.80;52.30;22.50;96729.00;;;;5122140;27;20209;-73
2021/10/30 12:10:59;;;;;;;15.50;13.85;;;22.80;52.70;22.40;96742.00;;;;5124869;27;20189;-74
2021/10/30 12:13:50;;;;;;;16.48;14.60;;;22.90;52.20;18.90;96727.00;;;;5127672;27;20676;-73
2021/10/30 12:16:39;;;;;;;16.52;13.85;;;22.20;49.90;19.40;96721.00;;;;5121637;27;20710;-74
2021/10/30 12:19:32;;;;;;;17.03;14.43;;;21.30;51.50;21.20;96720.00;;;;5122312;27;20730;-74
2021/10/30 12:22:23;;;;;;;18.37;14.67;;;21.20;53.10;21.90;96725.00;;;;5122969;27;20220;-74
2021/10/30 12:25:17;;;;;;;16.17;14.17;;;21.80;51.40;21.40;96722.00;;;;5117396;27;20486;-73
2021/10/30 12:28:07;;;;;;;18.07;15.40;;;21.80;51.70;21.90;96727.00;;;;5125377;27;20200;-73
2021/10/30 12:30:56;;;;;;;19.77;14.23;;;22.10;52.40;22.80;96719.00;;;;5127970;27;20197;-74
2021/10/30 12:33:49;;;;;;;14.65;13.15;;;22.50;52.20;22.70;96724.00;;;;5128599;27;20202;-73
2021/10/30 12:36:40;;;;;;;17.85;14.13;;;22.80;51.20;23.00;96730.00;;;;5126758;27;20686;-74